sensor_id;sensor_type;location;lat;lon;timestamp;temperature;humidity
70706;DHT22;59320;52.316;10.870;2023-07-24T00:00:22;21.00;96.50
70706;DHT22;59320;52.316;10.870;2023-07-24T00:02:49;20.90;97.00
70706;DHT22;59320;52.316;10.870;2023-07-24T00:05:16;20.90;96.80
70706;DHT22;59320;52.316;10.870;2023-07-24T00:07:44;20.90;97.20
70706;DHT22;59320;52.316;10.870;2023-07-24T00:10:11;20.90;97.50
70706;DHT22;59320;52.316;10.870;2023-07-24T00:12:39;20.80;97.50
70706;DHT22;59320;52.316;10.870;2023-07-24T00:15:07;20.80;97.80
70706;DHT22;59320;52.316;10.870;2023-07-24T00:17:34;20.80;97.70
70706;DHT22;59320;52.316;10.870;2023-07-24T00:20:01;20.80;97.80
70706;DHT22;59320;52.316;10.870;2023-07-24T00:22:29;20.80;98.00
70706;DHT22;59320;52.316;10.870;2023-07-24T00:24:56;20.80;98.30
70706;DHT22;59320;52.316;10.870;2023-07-24T00:27:23;20.70;98.30
70706;DHT22;59320;52.316;10.870;2023-07-24T00:29:51;20.70;98.40
70706;DHT22;59320;52.316;10.870;2023-07-24T00:32:20;20.70;98.40
70706;DHT22;59320;52.316;10.870;2023-07-24T00:34:47;20.60;98.70
70706;DHT22;59320;52.316;10.870;2023-07-24T00:37:15;20.60;98.70
70706;DHT22;59320;52.316;10.870;2023-07-24T00:39:42;20.70;98.60
70706;DHT22;59320;52.316;10.870;2023-07-24T00:42:09;20.70;98.70
70706;DHT22;59320;52.316;10.870;2023-07-24T00:44:36;20.70;98.60
70706;DHT22;59320;52.316;10.870;2023-07-24T00:47:05;20.70;98.60
70706;DHT22;59320;52.316;10.870;2023-07-24T00:49:32;20.70;98.50
70706;DHT22;59320;52.316;10.870;2023-07-24T00:52:00;20.80;98.60
70706;DHT22;59320;52.316;10.870;2023-07-24T00:54:30;20.80;98.50
70706;DHT22;59320;52.316;10.870;2023-07-24T00:56:57;20.90;98.50
70706;DHT22;59320;52.316;10.870;2023-07-24T00:59:25;20.80;98.70
70706;DHT22;59320;52.316;10.870;2023-07-24T01:01:52;20.90;98.80
70706;DHT22;59320;52.316;10.870;2023-07-24T01:04:22;20.80;98.70
70706;DHT22;59320;52.316;10.870;2023-07-24T01:06:49;20.90;98.50
70706;DHT22;59320;52.316;10.870;2023-07-24T01:09:16;20.90;98.50
70706;DHT22;59320;52.316;10.870;2023-07-24T01:11:46;20.90;98.60
70706;DHT22;59320;52.316;10.870;2023-07-24T01:14:19;20.90;98.60
70706;DHT22;59320;52.316;10.870;2023-07-24T01:16:48;20.90;98.70
70706;DHT22;59320;52.316;10.870;2023-07-24T01:19:33;20.90;99.00
70706;DHT22;59320;52.316;10.870;2023-07-24T01:22:09;20.90;98.90
70706;DHT22;59320;52.316;10.870;2023-07-24T01:24:48;20.90;98.90
70706;DHT22;59320;52.316;10.870;2023-07-24T01:27:23;20.90;98.90
70706;DHT22;59320;52.316;10.870;2023-07-24T01:29:51;20.80;99.00
70706;DHT22;59320;52.316;10.870;2023-07-24T01:32:18;20.90;98.90
70706;DHT22;59320;52.316;10.870;2023-07-24T01:34:47;20.90;98.90
70706;DHT22;59320;52.316;10.870;2023-07-24T01:37:15;20.90;98.80
70706;DHT22;59320;52.316;10.870;2023-07-24T01:39:44;20.90;98.90
70706;DHT22;59320;52.316;10.870;2023-07-24T01:42:13;20.90;99.00
70706;DHT22;59320;52.316;10.870;2023-07-24T01:44:42;20.90;99.40
70706;DHT22;59320;52.316;10.870;2023-07-24T01:47:09;20.80;99.30
70706;DHT22;59320;52.316;10.870;2023-07-24T01:49:37;20.80;99.30
70706;DHT22;59320;52.316;10.870;2023-07-24T01:52:05;20.80;99.40
70706;DHT22;59320;52.316;10.870;2023-07-24T01:54:32;20.70;99.50
70706;DHT22;59320;52.316;10.870;2023-07-24T01:56:59;20.70;99.40
70706;DHT22;59320;52.316;10.870;2023-07-24T01:59:26;20.70;99.50
70706;DHT22;59320;52.316;10.870;2023-07-24T02:01:54;20.80;99.30
70706;DHT22;59320;52.316;10.870;2023-07-24T02:04:22;20.80;99.30
70706;DHT22;59320;52.316;10.870;2023-07-24T02:06:49;20.70;99.40
70706;DHT22;59320;52.316;10.870;2023-07-24T02:09:17;20.60;99.50
70706;DHT22;59320;52.316;10.870;2023-07-24T02:11:45;20.70;99.60
70706;DHT22;59320;52.316;10.870;2023-07-24T02:14:12;20.60;99.60
70706;DHT22;59320;52.316;10.870;2023-07-24T02:16:40;20.70;99.60
70706;DHT22;59320;52.316;10.870;2023-07-24T02:19:08;20.70;99.60
70706;DHT22;59320;52.316;10.870;2023-07-24T02:21:36;20.70;99.60
70706;DHT22;59320;52.316;10.870;2023-07-24T02:24:04;20.70;99.60
70706;DHT22;59320;52.316;10.870;2023-07-24T02:26:31;20.70;99.70
70706;DHT22;59320;52.316;10.870;2023-07-24T02:28:58;20.70;99.70
70706;DHT22;59320;52.316;10.870;2023-07-24T02:31:25;20.70;99.60
70706;DHT22;59320;52.316;10.870;2023-07-24T02:33:53;20.70;99.50
70706;DHT22;59320;52.316;10.870;2023-07-24T02:36:21;20.70;99.40
70706;DHT22;59320;52.316;10.870;2023-07-24T02:38:48;20.80;99.50
70706;DHT22;59320;52.316;10.870;2023-07-24T02:41:15;20.70;99.60
70706;DHT22;59320;52.316;10.870;2023-07-24T02:43:42;20.70;99.50
70706;DHT22;59320;52.316;10.870;2023-07-24T02:46:09;20.70;99.50
70706;DHT22;59320;52.316;10.870;2023-07-24T02:48:37;20.70;99.60
70706;DHT22;59320;52.316;10.870;2023-07-24T02:51:04;20.70;99.50
70706;DHT22;59320;52.316;10.870;2023-07-24T02:53:32;20.70;99.50
70706;DHT22;59320;52.316;10.870;2023-07-24T02:56:01;20.70;99.50
70706;DHT22;59320;52.316;10.870;2023-07-24T02:58:28;20.70;99.40
70706;DHT22;59320;52.316;10.870;2023-07-24T03:01:02;20.80;99.50
70706;DHT22;59320;52.316;10.870;2023-07-24T03:03:30;20.80;99.50
70706;DHT22;59320;52.316;10.870;2023-07-24T03:05:57;20.80;99.40
70706;DHT22;59320;52.316;10.870;2023-07-24T03:08:24;20.80;99.40
70706;DHT22;59320;52.316;10.870;2023-07-24T03:10:52;20.80;99.50
70706;DHT22;59320;52.316;10.870;2023-07-24T03:13:20;20.80;99.40
70706;DHT22;59320;52.316;10.870;2023-07-24T03:15:52;20.80;99.30
70706;DHT22;59320;52.316;10.870;2023-07-24T03:18:20;20.80;99.30
70706;DHT22;59320;52.316;10.870;2023-07-24T03:20:47;20.80;99.30
70706;DHT22;59320;52.316;10.870;2023-07-24T03:23:14;20.70;99.30
70706;DHT22;59320;52.316;10.870;2023-07-24T03:25:41;20.80;99.20
70706;DHT22;59320;52.316;10.870;2023-07-24T03:28:10;20.80;99.20
70706;DHT22;59320;52.316;10.870;2023-07-24T03:30:37;20.80;99.20
70706;DHT22;59320;52.316;10.870;2023-07-24T03:33:04;20.80;99.20
70706;DHT22;59320;52.316;10.870;2023-07-24T03:35:32;20.80;99.30
70706;DHT22;59320;52.316;10.870;2023-07-24T03:37:59;20.80;99.20
70706;DHT22;59320;52.316;10.870;2023-07-24T03:40:27;20.80;99.20
70706;DHT22;59320;52.316;10.870;2023-07-24T03:42:54;20.80;99.10
70706;DHT22;59320;52.316;10.870;2023-07-24T03:45:23;20.90;99.00
70706;DHT22;59320;52.316;10.870;2023-07-24T03:47:50;20.80;99.00
70706;DHT22;59320;52.316;10.870;2023-07-24T03:50:17;20.80;99.00
70706;DHT22;59320;52.316;10.870;2023-07-24T03:52:44;20.90;98.80
70706;DHT22;59320;52.316;10.870;2023-07-24T03:55:11;20.80;98.80
70706;DHT22;59320;52.316;10.870;2023-07-24T03:57:38;20.80;98.80
70706;DHT22;59320;52.316;10.870;2023-07-24T04:00:07;20.80;98.80
70706;DHT22;59320;52.316;10.870;2023-07-24T04:02:42;20.80;98.70
70706;DHT22;59320;52.316;10.870;2023-07-24T04:05:09;20.90;98.60
70706;DHT22;59320;52.316;10.870;2023-07-24T04:07:36;20.90;98.60
70706;DHT22;59320;52.316;10.870;2023-07-24T04:10:04;20.90;98.50
70706;DHT22;59320;52.316;10.870;2023-07-24T04:12:32;20.90;98.40
70706;DHT22;59320;52.316;10.870;2023-07-24T04:14:59;20.80;98.40
70706;DHT22;59320;52.316;10.870;2023-07-24T04:17:26;20.90;98.50
70706;DHT22;59320;52.316;10.870;2023-07-24T04:19:54;20.80;98.40
70706;DHT22;59320;52.316;10.870;2023-07-24T04:22:22;20.90;98.40
70706;DHT22;59320;52.316;10.870;2023-07-24T04:24:49;20.90;98.30
70706;DHT22;59320;52.316;10.870;2023-07-24T04:27:16;21.00;98.20
70706;DHT22;59320;52.316;10.870;2023-07-24T04:29:43;21.10;98.10
70706;DHT22;59320;52.316;10.870;2023-07-24T04:32:10;21.10;98.00
70706;DHT22;59320;52.316;10.870;2023-07-24T04:34:37;21.10;98.00
70706;DHT22;59320;52.316;10.870;2023-07-24T04:37:06;21.10;98.00
70706;DHT22;59320;52.316;10.870;2023-07-24T04:39:33;21.10;97.90
70706;DHT22;59320;52.316;10.870;2023-07-24T04:42:00;21.10;97.90
70706;DHT22;59320;52.316;10.870;2023-07-24T04:44:28;21.10;97.90
70706;DHT22;59320;52.316;10.870;2023-07-24T04:46:55;21.20;97.90
70706;DHT22;59320;52.316;10.870;2023-07-24T04:49:22;21.20;97.80
70706;DHT22;59320;52.316;10.870;2023-07-24T04:51:50;21.20;97.70
70706;DHT22;59320;52.316;10.870;2023-07-24T04:54:18;21.20;97.80
70706;DHT22;59320;52.316;10.870;2023-07-24T04:56:46;21.30;97.70
70706;DHT22;59320;52.316;10.870;2023-07-24T04:59:13;21.30;97.70
70706;DHT22;59320;52.316;10.870;2023-07-24T05:01:40;21.40;97.60
70706;DHT22;59320;52.316;10.870;2023-07-24T05:04:08;21.40;97.50
70706;DHT22;59320;52.316;10.870;2023-07-24T05:06:35;21.50;97.40
70706;DHT22;59320;52.316;10.870;2023-07-24T05:09:03;21.50;97.30
70706;DHT22;59320;52.316;10.870;2023-07-24T05:11:31;21.50;97.30
70706;DHT22;59320;52.316;10.870;2023-07-24T05:13:58;21.50;97.30
70706;DHT22;59320;52.316;10.870;2023-07-24T05:16:26;21.50;97.20
70706;DHT22;59320;52.316;10.870;2023-07-24T05:18:53;21.50;97.20
70706;DHT22;59320;52.316;10.870;2023-07-24T05:21:20;21.50;97.20
70706;DHT22;59320;52.316;10.870;2023-07-24T05:23:47;21.60;97.20
70706;DHT22;59320;52.316;10.870;2023-07-24T05:26:14;21.60;97.10
70706;DHT22;59320;52.316;10.870;2023-07-24T05:28:43;21.60;97.10
70706;DHT22;59320;52.316;10.870;2023-07-24T05:31:10;21.60;97.10
70706;DHT22;59320;52.316;10.870;2023-07-24T05:33:37;21.60;97.00
70706;DHT22;59320;52.316;10.870;2023-07-24T05:36:05;21.60;97.00
70706;DHT22;59320;52.316;10.870;2023-07-24T05:38:32;21.50;97.00
70706;DHT22;59320;52.316;10.870;2023-07-24T05:41:00;21.50;97.10
70706;DHT22;59320;52.316;10.870;2023-07-24T05:43:28;21.60;97.10
70706;DHT22;59320;52.316;10.870;2023-07-24T05:45:57;21.60;97.00
70706;DHT22;59320;52.316;10.870;2023-07-24T05:48:24;21.70;97.00
70706;DHT22;59320;52.316;10.870;2023-07-24T05:50:52;21.70;96.90
70706;DHT22;59320;52.316;10.870;2023-07-24T05:53:19;21.80;96.90
70706;DHT22;59320;52.316;10.870;2023-07-24T05:55:46;21.90;96.70
70706;DHT22;59320;52.316;10.870;2023-07-24T05:58:14;22.00;96.50
70706;DHT22;59320;52.316;10.870;2023-07-24T06:00:41;22.00;96.30
70706;DHT22;59320;52.316;10.870;2023-07-24T06:03:10;22.10;96.30
70706;DHT22;59320;52.316;10.870;2023-07-24T06:05:37;22.10;96.20
70706;DHT22;59320;52.316;10.870;2023-07-24T06:08:04;22.20;96.20
70706;DHT22;59320;52.316;10.870;2023-07-24T06:10:34;22.20;96.10
70706;DHT22;59320;52.316;10.870;2023-07-24T06:13:01;22.30;95.90
70706;DHT22;59320;52.316;10.870;2023-07-24T06:15:28;22.40;95.70
70706;DHT22;59320;52.316;10.870;2023-07-24T06:17:55;22.40;95.70
70706;DHT22;59320;52.316;10.870;2023-07-24T06:20:24;22.50;95.30
70706;DHT22;59320;52.316;10.870;2023-07-24T06:22:51;22.70;95.40
70706;DHT22;59320;52.316;10.870;2023-07-24T06:25:18;22.80;95.00
70706;DHT22;59320;52.316;10.870;2023-07-24T06:27:45;22.80;95.00
70706;DHT22;59320;52.316;10.870;2023-07-24T06:30:13;22.90;94.90
70706;DHT22;59320;52.316;10.870;2023-07-24T06:32:40;23.00;94.50
70706;DHT22;59320;52.316;10.870;2023-07-24T06:35:07;23.00;94.30
70706;DHT22;59320;52.316;10.870;2023-07-24T06:37:36;23.00;94.40
70706;DHT22;59320;52.316;10.870;2023-07-24T06:40:04;23.00;94.30
70706;DHT22;59320;52.316;10.870;2023-07-24T06:42:31;23.00;94.30
70706;DHT22;59320;52.316;10.870;2023-07-24T06:44:58;22.90;94.40
70706;DHT22;59320;52.316;10.870;2023-07-24T06:47:25;22.90;94.30
70706;DHT22;59320;52.316;10.870;2023-07-24T06:49:53;22.90;94.40
70706;DHT22;59320;52.316;10.870;2023-07-24T06:52:20;22.90;94.50
70706;DHT22;59320;52.316;10.870;2023-07-24T06:54:48;22.90;94.60
70706;DHT22;59320;52.316;10.870;2023-07-24T06:57:15;23.00;94.40
70706;DHT22;59320;52.316;10.870;2023-07-24T06:59:42;23.10;94.40
70706;DHT22;59320;52.316;10.870;2023-07-24T07:02:10;23.30;94.20
70706;DHT22;59320;52.316;10.870;2023-07-24T07:04:37;23.50;94.10
70706;DHT22;59320;52.316;10.870;2023-07-24T07:07:04;23.80;93.70
70706;DHT22;59320;52.316;10.870;2023-07-24T07:09:32;24.10;93.50
70706;DHT22;59320;52.316;10.870;2023-07-24T07:12:01;24.30;92.90
70706;DHT22;59320;52.316;10.870;2023-07-24T07:14:28;24.20;92.70
70706;DHT22;59320;52.316;10.870;2023-07-24T07:16:55;24.10;92.50
70706;DHT22;59320;52.316;10.870;2023-07-24T07:19:22;24.00;92.60
70706;DHT22;59320;52.316;10.870;2023-07-24T07:21:49;24.00;92.80
70706;DHT22;59320;52.316;10.870;2023-07-24T07:24:16;24.10;92.70
70706;DHT22;59320;52.316;10.870;2023-07-24T07:26:50;24.20;92.30
70706;DHT22;59320;52.316;10.870;2023-07-24T07:29:30;24.20;92.10
70706;DHT22;59320;52.316;10.870;2023-07-24T07:32:08;24.20;92.20
70706;DHT22;59320;52.316;10.870;2023-07-24T07:34:35;24.10;92.20
70706;DHT22;59320;52.316;10.870;2023-07-24T07:37:04;24.00;92.30
70706;DHT22;59320;52.316;10.870;2023-07-24T07:39:31;24.00;92.40
70706;DHT22;59320;52.316;10.870;2023-07-24T07:41:59;24.00;92.20
70706;DHT22;59320;52.316;10.870;2023-07-24T07:44:28;23.90;91.90
70706;DHT22;59320;52.316;10.870;2023-07-24T07:46:55;23.80;92.10
70706;DHT22;59320;52.316;10.870;2023-07-24T07:49:22;23.90;92.20
70706;DHT22;59320;52.316;10.870;2023-07-24T07:51:49;24.10;92.10
70706;DHT22;59320;52.316;10.870;2023-07-24T07:54:16;24.10;91.70
70706;DHT22;59320;52.316;10.870;2023-07-24T07:56:44;24.10;91.70
70706;DHT22;59320;52.316;10.870;2023-07-24T07:59:11;24.30;91.80
70706;DHT22;59320;52.316;10.870;2023-07-24T08:01:40;24.50;91.70
70706;DHT22;59320;52.316;10.870;2023-07-24T08:04:08;24.90;91.30
70706;DHT22;59320;52.316;10.870;2023-07-24T08:06:35;25.20;90.50
70706;DHT22;59320;52.316;10.870;2023-07-24T08:09:02;25.40;90.20
70706;DHT22;59320;52.316;10.870;2023-07-24T08:11:29;25.30;89.00
70706;DHT22;59320;52.316;10.870;2023-07-24T08:13:56;25.20;89.50
70706;DHT22;59320;52.316;10.870;2023-07-24T08:16:23;25.30;89.40
70706;DHT22;59320;52.316;10.870;2023-07-24T08:18:52;25.40;89.10
70706;DHT22;59320;52.316;10.870;2023-07-24T08:21:19;25.50;87.50
70706;DHT22;59320;52.316;10.870;2023-07-24T08:23:46;25.40;87.60
70706;DHT22;59320;52.316;10.870;2023-07-24T08:26:13;25.50;86.70
70706;DHT22;59320;52.316;10.870;2023-07-24T08:28:40;25.60;87.40
70706;DHT22;59320;52.316;10.870;2023-07-24T08:31:08;25.60;86.40
70706;DHT22;59320;52.316;10.870;2023-07-24T08:33:35;25.60;86.70
70706;DHT22;59320;52.316;10.870;2023-07-24T08:36:05;25.80;86.80
70706;DHT22;59320;52.316;10.870;2023-07-24T08:38:34;26.00;85.20
70706;DHT22;59320;52.316;10.870;2023-07-24T08:41:02;26.00;83.60
70706;DHT22;59320;52.316;10.870;2023-07-24T08:43:30;25.90;82.30
70706;DHT22;59320;52.316;10.870;2023-07-24T08:45:59;25.80;82.50
70706;DHT22;59320;52.316;10.870;2023-07-24T08:48:27;25.70;82.00
70706;DHT22;59320;52.316;10.870;2023-07-24T08:50:56;25.50;82.20
70706;DHT22;59320;52.316;10.870;2023-07-24T08:53:25;25.60;82.70
70706;DHT22;59320;52.316;10.870;2023-07-24T08:55:54;25.70;82.00
70706;DHT22;59320;52.316;10.870;2023-07-24T08:58:21;25.70;80.40
70706;DHT22;59320;52.316;10.870;2023-07-24T09:00:48;25.80;80.00
70706;DHT22;59320;52.316;10.870;2023-07-24T09:03:17;25.70;79.20
70706;DHT22;59320;52.316;10.870;2023-07-24T09:05:45;25.60;79.10
70706;DHT22;59320;52.316;10.870;2023-07-24T09:08:13;25.50;79.60
70706;DHT22;59320;52.316;10.870;2023-07-24T09:10:42;25.50;79.60
70706;DHT22;59320;52.316;10.870;2023-07-24T09:13:12;25.40;79.10
70706;DHT22;59320;52.316;10.870;2023-07-24T09:15:42;25.20;79.30
70706;DHT22;59320;52.316;10.870;2023-07-24T09:18:10;25.20;79.80
70706;DHT22;59320;52.316;10.870;2023-07-24T09:20:42;25.10;79.00
70706;DHT22;59320;52.316;10.870;2023-07-24T09:23:10;24.90;79.40
70706;DHT22;59320;52.316;10.870;2023-07-24T09:25:42;24.70;82.00
70706;DHT22;59320;52.316;10.870;2023-07-24T09:28:10;24.10;87.80
70706;DHT22;59320;52.316;10.870;2023-07-24T09:30:38;23.50;91.10
70706;DHT22;59320;52.316;10.870;2023-07-24T09:33:06;23.10;92.60
70706;DHT22;59320;52.316;10.870;2023-07-24T09:35:34;22.80;93.50
70706;DHT22;59320;52.316;10.870;2023-07-24T09:38:03;22.60;94.30
70706;DHT22;59320;52.316;10.870;2023-07-24T09:40:38;22.50;94.70
70706;DHT22;59320;52.316;10.870;2023-07-24T09:43:23;22.60;95.30
70706;DHT22;59320;52.316;10.870;2023-07-24T09:45:50;22.60;96.00
70706;DHT22;59320;52.316;10.870;2023-07-24T09:48:19;22.60;96.20
70706;DHT22;59320;52.316;10.870;2023-07-24T09:50:48;22.70;96.10
70706;DHT22;59320;52.316;10.870;2023-07-24T09:53:19;22.80;95.80
70706;DHT22;59320;52.316;10.870;2023-07-24T09:55:52;23.00;96.00
70706;DHT22;59320;52.316;10.870;2023-07-24T09:58:56;23.20;95.60
70706;DHT22;59320;52.316;10.870;2023-07-24T10:01:25;23.40;95.10
70706;DHT22;59320;52.316;10.870;2023-07-24T10:03:53;23.50;94.90
70706;DHT22;59320;52.316;10.870;2023-07-24T10:06:20;23.50;93.90
70706;DHT22;59320;52.316;10.870;2023-07-24T10:08:49;23.50;94.00
70706;DHT22;59320;52.316;10.870;2023-07-24T10:11:16;23.50;93.90
70706;DHT22;59320;52.316;10.870;2023-07-24T10:13:44;23.70;93.80
70706;DHT22;59320;52.316;10.870;2023-07-24T10:16:13;23.80;93.70
70706;DHT22;59320;52.316;10.870;2023-07-24T10:18:43;24.10;93.20
70706;DHT22;59320;52.316;10.870;2023-07-24T10:21:11;24.30;92.80
70706;DHT22;59320;52.316;10.870;2023-07-24T10:23:41;24.30;92.10
70706;DHT22;59320;52.316;10.870;2023-07-24T10:26:09;24.30;91.90
70706;DHT22;59320;52.316;10.870;2023-07-24T10:28:38;24.40;91.90
70706;DHT22;59320;52.316;10.870;2023-07-24T10:31:06;24.60;91.60
70706;DHT22;59320;52.316;10.870;2023-07-24T10:33:36;24.90;91.00
70706;DHT22;59320;52.316;10.870;2023-07-24T10:36:11;25.00;90.20
70706;DHT22;59320;52.316;10.870;2023-07-24T10:38:41;25.10;90.20
70706;DHT22;59320;52.316;10.870;2023-07-24T10:41:10;25.10;89.10
70706;DHT22;59320;52.316;10.870;2023-07-24T10:43:42;25.10;89.60
70706;DHT22;59320;52.316;10.870;2023-07-24T10:46:11;25.20;88.00
70706;DHT22;59320;52.316;10.870;2023-07-24T10:48:42;25.20;87.80
70706;DHT22;59320;52.316;10.870;2023-07-24T10:51:10;25.40;87.80
70706;DHT22;59320;52.316;10.870;2023-07-24T10:53:43;25.50;87.70
70706;DHT22;59320;52.316;10.870;2023-07-24T10:56:11;25.70;87.40
70706;DHT22;59320;52.316;10.870;2023-07-24T10:58:38;25.80;85.60
70706;DHT22;59320;52.316;10.870;2023-07-24T11:01:06;25.80;84.60
70706;DHT22;59320;52.316;10.870;2023-07-24T11:03:36;25.60;84.20
70706;DHT22;59320;52.316;10.870;2023-07-24T11:06:10;25.70;83.90
70706;DHT22;59320;52.316;10.870;2023-07-24T11:08:39;26.00;83.70
70706;DHT22;59320;52.316;10.870;2023-07-24T11:11:07;26.20;82.80
70706;DHT22;59320;52.316;10.870;2023-07-24T11:13:35;26.30;81.40
70706;DHT22;59320;52.316;10.870;2023-07-24T11:16:05;26.30;80.90
70706;DHT22;59320;52.316;10.870;2023-07-24T11:18:32;26.20;80.50
70706;DHT22;59320;52.316;10.870;2023-07-24T11:20:59;26.30;80.50
70706;DHT22;59320;52.316;10.870;2023-07-24T11:23:28;26.70;80.60
70706;DHT22;59320;52.316;10.870;2023-07-24T11:25:58;27.00;78.90
70706;DHT22;59320;52.316;10.870;2023-07-24T11:28:29;27.10;78.40
70706;DHT22;59320;52.316;10.870;2023-07-24T11:31:05;27.30;76.80
70706;DHT22;59320;52.316;10.870;2023-07-24T11:33:34;27.30;75.60
70706;DHT22;59320;52.316;10.870;2023-07-24T11:36:02;27.30;75.00
70706;DHT22;59320;52.316;10.870;2023-07-24T11:38:30;27.10;75.00
70706;DHT22;59320;52.316;10.870;2023-07-24T11:40:58;26.90;75.10
70706;DHT22;59320;52.316;10.870;2023-07-24T11:43:25;26.90;75.20
70706;DHT22;59320;52.316;10.870;2023-07-24T11:45:54;27.00;74.50
70706;DHT22;59320;52.316;10.870;2023-07-24T11:48:23;26.90;74.80
70706;DHT22;59320;52.316;10.870;2023-07-24T11:50:52;26.90;74.80
70706;DHT22;59320;52.316;10.870;2023-07-24T11:53:40;26.80;74.90
70706;DHT22;59320;52.316;10.870;2023-07-24T11:56:13;27.00;75.70
70706;DHT22;59320;52.316;10.870;2023-07-24T11:58:40;26.90;74.30
70706;DHT22;59320;52.316;10.870;2023-07-24T12:01:08;26.70;74.00
70706;DHT22;59320;52.316;10.870;2023-07-24T12:03:35;26.50;75.00
70706;DHT22;59320;52.316;10.870;2023-07-24T12:06:02;26.40;76.00
70706;DHT22;59320;52.316;10.870;2023-07-24T12:08:31;26.40;76.00
70706;DHT22;59320;52.316;10.870;2023-07-24T12:11:00;26.30;75.70
70706;DHT22;59320;52.316;10.870;2023-07-24T12:13:27;26.50;76.00
70706;DHT22;59320;52.316;10.870;2023-07-24T12:15:57;26.60;75.20
70706;DHT22;59320;52.316;10.870;2023-07-24T12:18:24;26.80;75.50
70706;DHT22;59320;52.316;10.870;2023-07-24T12:20:52;27.20;74.90
70706;DHT22;59320;52.316;10.870;2023-07-24T12:23:19;27.90;73.10
70706;DHT22;59320;52.316;10.870;2023-07-24T12:25:56;28.10;72.10
70706;DHT22;59320;52.316;10.870;2023-07-24T12:28:24;27.70;71.70
70706;DHT22;59320;52.316;10.870;2023-07-24T12:30:53;27.40;72.40
70706;DHT22;59320;52.316;10.870;2023-07-24T12:33:21;27.20;72.80
70706;DHT22;59320;52.316;10.870;2023-07-24T12:35:51;27.00;73.60
70706;DHT22;59320;52.316;10.870;2023-07-24T12:38:21;26.90;75.20
70706;DHT22;59320;52.316;10.870;2023-07-24T12:40:50;26.50;77.20
70706;DHT22;59320;52.316;10.870;2023-07-24T12:43:17;26.20;79.60
70706;DHT22;59320;52.316;10.870;2023-07-24T12:45:45;26.00;81.70
70706;DHT22;59320;52.316;10.870;2023-07-24T12:48:13;26.30;83.60
70706;DHT22;59320;52.316;10.870;2023-07-24T12:50:40;26.70;82.40
70706;DHT22;59320;52.316;10.870;2023-07-24T12:53:07;27.10;81.40
70706;DHT22;59320;52.316;10.870;2023-07-24T12:55:34;27.40;79.80
70706;DHT22;59320;52.316;10.870;2023-07-24T12:58:02;27.80;78.50
70706;DHT22;59320;52.316;10.870;2023-07-24T13:00:29;28.20;78.70
70706;DHT22;59320;52.316;10.870;2023-07-24T13:02:58;28.40;77.30
70706;DHT22;59320;52.316;10.870;2023-07-24T13:05:26;28.30;77.20
70706;DHT22;59320;52.316;10.870;2023-07-24T13:07:54;28.00;77.40
70706;DHT22;59320;52.316;10.870;2023-07-24T13:10:21;27.70;78.10
70706;DHT22;59320;52.316;10.870;2023-07-24T13:12:48;27.60;78.70
70706;DHT22;59320;52.316;10.870;2023-07-24T13:15:15;27.40;78.80
70706;DHT22;59320;52.316;10.870;2023-07-24T13:17:42;27.20;79.60
70706;DHT22;59320;52.316;10.870;2023-07-24T13:20:12;27.20;79.60
70706;DHT22;59320;52.316;10.870;2023-07-24T13:22:39;27.20;79.70
70706;DHT22;59320;52.316;10.870;2023-07-24T13:25:07;27.10;78.00
70706;DHT22;59320;52.316;10.870;2023-07-24T13:27:34;27.00;76.90
70706;DHT22;59320;52.316;10.870;2023-07-24T13:30:01;27.00;77.00
70706;DHT22;59320;52.316;10.870;2023-07-24T13:32:30;26.90;76.00
70706;DHT22;59320;52.316;10.870;2023-07-24T13:34:57;26.80;75.80
70706;DHT22;59320;52.316;10.870;2023-07-24T13:37:49;26.70;75.50
70706;DHT22;59320;52.316;10.870;2023-07-24T13:40:36;26.70;75.40
70706;DHT22;59320;52.316;10.870;2023-07-24T13:43:05;26.70;75.60
70706;DHT22;59320;52.316;10.870;2023-07-24T13:45:37;26.80;75.20
70706;DHT22;59320;52.316;10.870;2023-07-24T13:48:05;26.70;75.90
70706;DHT22;59320;52.316;10.870;2023-07-24T13:50:32;26.00;77.90
70706;DHT22;59320;52.316;10.870;2023-07-24T13:53:00;25.60;79.70
70706;DHT22;59320;52.316;10.870;2023-07-24T13:55:28;25.30;80.70
70706;DHT22;59320;52.316;10.870;2023-07-24T13:57:55;25.00;82.10
70706;DHT22;59320;52.316;10.870;2023-07-24T14:00:22;24.90;82.80
70706;DHT22;59320;52.316;10.870;2023-07-24T14:02:49;24.60;83.60
70706;DHT22;59320;52.316;10.870;2023-07-24T14:05:16;24.50;84.50
70706;DHT22;59320;52.316;10.870;2023-07-24T14:07:44;24.50;84.80
70706;DHT22;59320;52.316;10.870;2023-07-24T14:10:12;24.40;85.40
70706;DHT22;59320;52.316;10.870;2023-07-24T14:12:39;24.30;86.00
70706;DHT22;59320;52.316;10.870;2023-07-24T14:15:07;24.20;86.80
70706;DHT22;59320;52.316;10.870;2023-07-24T14:17:34;23.90;88.30
70706;DHT22;59320;52.316;10.870;2023-07-24T14:20:02;23.90;89.60
70706;DHT22;59320;52.316;10.870;2023-07-24T14:22:29;23.90;90.10
70706;DHT22;59320;52.316;10.870;2023-07-24T14:24:56;24.30;90.20
70706;DHT22;59320;52.316;10.870;2023-07-24T14:27:25;24.40;90.00
70706;DHT22;59320;52.316;10.870;2023-07-24T14:29:52;24.50;90.00
70706;DHT22;59320;52.316;10.870;2023-07-24T14:32:19;24.60;90.10
70706;DHT22;59320;52.316;10.870;2023-07-24T14:34:50;24.70;90.50
70706;DHT22;59320;52.316;10.870;2023-07-24T14:37:18;24.90;90.40
70706;DHT22;59320;52.316;10.870;2023-07-24T14:39:45;25.00;90.20
70706;DHT22;59320;52.316;10.870;2023-07-24T14:42:12;24.90;90.10
70706;DHT22;59320;52.316;10.870;2023-07-24T14:44:43;24.80;90.50
70706;DHT22;59320;52.316;10.870;2023-07-24T14:47:10;25.10;90.50
70706;DHT22;59320;52.316;10.870;2023-07-24T14:49:39;25.60;90.10
70706;DHT22;59320;52.316;10.870;2023-07-24T14:52:06;26.00;89.30
70706;DHT22;59320;52.316;10.870;2023-07-24T14:54:34;26.10;87.80
70706;DHT22;59320;52.316;10.870;2023-07-24T14:57:01;26.00;87.50
70706;DHT22;59320;52.316;10.870;2023-07-24T14:59:28;25.60;87.50
70706;DHT22;59320;52.316;10.870;2023-07-24T15:01:57;25.20;86.30
70706;DHT22;59320;52.316;10.870;2023-07-24T15:04:24;24.90;86.80
70706;DHT22;59320;52.316;10.870;2023-07-24T15:06:51;24.60;87.80
70706;DHT22;59320;52.316;10.870;2023-07-24T15:09:18;24.40;88.40
70706;DHT22;59320;52.316;10.870;2023-07-24T15:11:46;24.40;88.40
70706;DHT22;59320;52.316;10.870;2023-07-24T15:14:13;24.40;87.30
70706;DHT22;59320;52.316;10.870;2023-07-24T15:16:40;24.20;87.00
70706;DHT22;59320;52.316;10.870;2023-07-24T15:19:09;24.10;87.70
70706;DHT22;59320;52.316;10.870;2023-07-24T15:21:36;24.10;87.70